Time;durP1;ratioP1;P1;durP2;ratioP2;P2;SDS_P1;SDS_P2;PMS_P1;PMS_P2;Temp;Humidity;BMP_temperature;BMP_pressure;BME280_temperature;BME280_humidity;BME280_pressure;Samples;Min_cycle;Max_cycle;Signal;HPM_P1;HPM_P2
2022/04/14 00:00:14;;;;;;;2.60;1.38;;;23.80;42.50;;;;;;4991226;28;20486;-64
2022/04/14 00:02:40;;;;;;;2.45;1.40;;;23.80;42.50;;;;;;4987953;28;20034;-61
2022/04/14 00:05:06;;;;;;;2.95;1.50;;;23.80;42.50;;;;;;4991140;28;20454;-62
2022/04/14 00:07:32;;;;;;;3.92;1.60;;;23.80;42.50;;;;;;4993416;28;20034;-62
2022/04/14 00:09:58;;;;;;;3.42;1.40;;;23.80;42.50;;;;;;4993505;28;20033;-62
2022/04/14 00:12:23;;;;;;;3.13;1.40;;;23.70;42.60;;;;;;4991964;28;20553;-62
2022/04/14 00:14:49;;;;;;;2.45;1.30;;;23.70;42.50;;;;;;4993078;28;20029;-61
2022/04/14 00:17:15;;;;;;;2.70;1.27;;;23.70;42.60;;;;;;4990555;28;20030;-62
2022/04/14 00:19:41;;;;;;;3.85;1.60;;;23.70;42.60;;;;;;4989973;28;20045;-63
2022/04/14 00:22:07;;;;;;;2.72;1.48;;;23.70;42.60;;;;;;4989146;28;20064;-63
2022/04/14 00:24:32;;;;;;;2.22;1.20;;;23.70;42.60;;;;;;4989332;28;20034;-62
2022/04/14 00:26:58;;;;;;;2.22;1.10;;;23.70;42.60;;;;;;4992138;28;20088;-64
2022/04/14 00:29:24;;;;;;;5.00;1.50;;;23.60;42.60;;;;;;4993174;28;20292;-63
2022/04/14 00:31:50;;;;;;;3.35;1.23;;;23.60;42.60;;;;;;4991699;28;20037;-60
2022/04/14 00:34:15;;;;;;;2.25;1.30;;;23.60;42.60;;;;;;4990668;28;20033;-63
2022/04/14 00:36:41;;;;;;;3.15;1.30;;;23.60;42.60;;;;;;4992465;28;20084;-63
2022/04/14 00:39:09;;;;;;;3.53;1.35;;;23.60;42.60;;;;;;4993027;28;20848;-64
2022/04/14 00:41:36;;;;;;;2.97;1.30;;;23.50;42.60;;;;;;4993670;28;20356;-64
2022/04/14 00:44:03;;;;;;;3.55;1.33;;;23.50;42.60;;;;;;4991538;28;20030;-62
2022/04/14 00:46:28;;;;;;;2.22;1.20;;;23.50;42.60;;;;;;4993367;28;20068;-63
2022/04/14 00:48:54;;;;;;;2.25;1.30;;;23.50;42.60;;;;;;4988730;28;20121;-62
2022/04/14 00:51:20;;;;;;;2.30;1.20;;;23.50;42.60;;;;;;4993335;28;20136;-59
2022/04/14 00:53:46;;;;;;;2.38;1.20;;;23.50;42.70;;;;;;4992121;28;20121;-62
2022/04/14 00:56:11;;;;;;;2.15;1.23;;;23.50;42.70;;;;;;4993164;28;20033;-64
2022/04/14 00:58:37;;;;;;;2.20;1.20;;;23.40;42.70;;;;;;4991918;28;20049;-63
2022/04/14 01:01:06;;;;;;;2.03;1.05;;;23.40;42.70;;;;;;4992038;28;20038;-64
2022/04/14 01:03:35;;;;;;;3.03;1.17;;;23.40;42.70;;;;;;4991287;28;20029;-62
2022/04/14 01:06:02;;;;;;;1.92;1.13;;;23.40;42.80;;;;;;4992857;28;20487;-64
2022/04/14 01:08:32;;;;;;;2.80;1.10;;;23.40;42.80;;;;;;4992086;28;20033;-63
2022/04/14 01:10:58;;;;;;;;;;;23.40;42.80;;;;;;5008719;28;20079;-63
2022/04/14 01:13:24;;;;;;;2.83;1.20;;;23.30;42.80;;;;;;4990881;28;20452;-63
2022/04/14 01:15:55;;;;;;;2.45;1.00;;;23.40;42.80;;;;;;4992555;28;20021;-62
2022/04/14 01:18:21;;;;;;;2.47;1.30;;;23.30;42.90;;;;;;4989511;28;20114;-62
2022/04/14 01:20:46;;;;;;;2.35;1.10;;;23.30;42.80;;;;;;4992549;28;20121;-63
2022/04/14 01:23:17;;;;;;;2.55;1.10;;;23.30;42.80;;;;;;5023356;28;20029;-61
2022/04/14 01:25:43;;;;;;;2.40;1.10;;;23.30;42.90;;;;;;4992350;28;20034;-63
2022/04/14 01:28:09;;;;;;;1.90;1.10;;;23.30;42.90;;;;;;4991975;28;20597;-62
2022/04/14 01:30:36;;;;;;;2.50;1.10;;;23.20;42.80;;;;;;4992211;28;20064;-61
2022/04/14 01:33:02;;;;;;;1.60;1.00;;;23.20;42.80;;;;;;4990635;28;20072;-63
2022/04/14 01:35:28;;;;;;;2.63;1.10;;;23.20;42.80;;;;;;4994983;28;20037;-61
2022/04/14 01:37:53;;;;;;;2.33;1.10;;;23.20;42.90;;;;;;4992746;28;20033;-62
2022/04/14 01:40:19;;;;;;;1.88;1.20;;;23.20;43.00;;;;;;4993927;28;20025;-62
2022/04/14 01:42:45;;;;;;;2.13;1.17;;;23.20;43.00;;;;;;5026547;28;20045;-62
2022/04/14 01:45:11;;;;;;;2.05;1.20;;;23.20;43.00;;;;;;4993122;28;20147;-62
2022/04/14 01:47:44;;;;;;;1.88;0.98;;;23.10;43.00;;;;;;4988690;28;20076;-62
2022/04/14 01:50:12;;;;;;;1.90;1.10;;;23.10;43.00;;;;;;4995732;28;20030;-63
2022/04/14 01:52:39;;;;;;;2.17;1.15;;;23.10;43.00;;;;;;4993440;28;20037;-64
2022/04/14 01:55:05;;;;;;;2.08;1.17;;;23.10;43.10;;;;;;4995870;28;20034;-62
2022/04/14 01:57:31;;;;;;;1.88;1.05;;;23.10;43.10;;;;;;4994952;28;20100;-61
2022/04/14 02:00:01;;;;;;;1.60;0.88;;;23.10;43.10;;;;;;4992675;28;20121;-63
2022/04/14 02:02:27;;;;;;;2.80;1.20;;;23.10;43.10;;;;;;4991256;28;20045;-62
2022/04/14 02:04:53;;;;;;;1.75;0.90;;;23.10;43.10;;;;;;4994584;28;20041;-62
2022/04/14 02:07:19;;;;;;;1.38;0.90;;;23.10;43.10;;;;;;4992714;28;20029;-62
2022/04/14 02:09:45;;;;;;;1.48;0.90;;;23.10;43.10;;;;;;4992284;28;20069;-61
2022/04/14 02:12:11;;;;;;;2.42;1.30;;;23.00;43.10;;;;;;4995190;28;20061;-64
2022/04/14 02:14:37;;;;;;;4.25;1.10;;;23.00;43.10;;;;;;4993339;28;21074;-62
2022/04/14 02:17:03;;;;;;;2.00;1.30;;;23.00;43.10;;;;;;4992738;28;20036;-63
2022/04/14 02:19:29;;;;;;;2.65;1.10;;;23.00;43.20;;;;;;4994726;28;20038;-60
2022/04/14 02:21:58;;;;;;;1.83;1.00;;;23.00;43.20;;;;;;4991976;28;20037;-59
2022/04/14 02:24:24;;;;;;;1.83;1.02;;;22.90;43.20;;;;;;4994221;28;20044;-63
2022/04/14 02:26:49;;;;;;;2.00;1.10;;;22.90;43.20;;;;;;4992958;28;20049;-62
2022/04/14 02:29:15;;;;;;;1.40;1.10;;;22.90;43.20;;;;;;4992745;28;20076;-62
2022/04/14 02:31:40;;;;;;;1.77;0.98;;;22.90;43.20;;;;;;4990075;28;20063;-63
2022/04/14 02:34:06;;;;;;;2.40;1.00;;;22.90;43.20;;;;;;4993766;28;20026;-63
2022/04/14 02:36:32;;;;;;;1.98;1.10;;;22.90;43.20;;;;;;4991390;28;20038;-64
2022/04/14 02:38:57;;;;;;;1.77;1.00;;;22.90;43.20;;;;;;4993737;28;20041;-62
2022/04/14 02:41:23;;;;;;;1.70;1.00;;;22.90;43.20;;;;;;4989710;28;20115;-62
2022/04/14 02:43:49;;;;;;;1.58;1.02;;;22.90;43.20;;;;;;4993709;28;20034;-63
2022/04/14 02:46:15;;;;;;;1.77;1.08;;;22.90;43.20;;;;;;4991587;28;20056;-62
2022/04/14 02:48:41;;;;;;;1.75;1.17;;;22.80;43.20;;;;;;4991947;28;20037;-62
2022/04/14 02:51:06;;;;;;;1.77;1.02;;;22.80;43.30;;;;;;4994022;28;20877;-63
2022/04/14 02:53:32;;;;;;;1.70;1.00;;;22.80;43.30;;;;;;4992009;28;20038;-64
2022/04/14 02:55:58;;;;;;;1.85;1.10;;;22.80;43.30;;;;;;4991581;28;20210;-62
2022/04/14 02:58:24;;;;;;;1.77;1.00;;;22.80;43.20;;;;;;4993989;28;20561;-63
2022/04/14 03:00:50;;;;;;;2.97;1.50;;;22.80;43.20;;;;;;4993364;28;20117;-64
2022/04/14 03:03:16;;;;;;;2.00;1.10;;;22.80;43.20;;;;;;4991755;28;20037;-67
2022/04/14 03:05:42;;;;;;;2.10;1.00;;;22.80;43.30;;;;;;4993319;28;20136;-61
2022/04/14 03:08:08;;;;;;;1.98;1.00;;;22.80;43.30;;;;;;4994062;28;20199;-64
2022/04/14 03:10:33;;;;;;;1.10;0.90;;;22.80;43.30;;;;;;4993072;28;20060;-64
2022/04/14 03:12:59;;;;;;;2.15;0.90;;;22.70;43.20;;;;;;4991644;28;20038;-61
2022/04/14 03:15:25;;;;;;;1.88;1.10;;;22.70;43.20;;;;;;4992543;28;20081;-62
2022/04/14 03:17:51;;;;;;;1.65;1.10;;;22.80;43.30;;;;;;4990905;28;20052;-64
2022/04/14 03:20:16;;;;;;;1.77;1.00;;;22.70;43.20;;;;;;4995028;28;20045;-62
2022/04/14 03:22:42;;;;;;;2.03;1.10;;;22.80;43.30;;;;;;4993238;28;20090;-62
2022/04/14 03:25:10;;;;;;;1.65;1.10;;;22.70;43.70;;;;;;4988422;28;20041;-62
2022/04/14 03:27:37;;;;;;;1.80;0.90;;;22.70;43.30;;;;;;4991959;28;20034;-63
2022/04/14 03:30:08;;;;;;;1.88;1.10;;;22.70;43.30;;;;;;4992838;28;20373;-64
2022/04/14 03:32:44;;;;;;;1.48;0.90;;;22.70;43.30;;;;;;4987798;28;20050;-60
2022/04/14 03:35:11;;;;;;;1.95;1.10;;;22.70;43.30;;;;;;4990579;28;20109;-63
2022/04/14 03:37:37;;;;;;;1.48;0.93;;;22.70;43.30;;;;;;4992588;28;20061;-62
2022/04/14 03:40:05;;;;;;;2.15;1.13;;;22.70;43.30;;;;;;4992281;28;20087;-64
2022/04/14 03:42:30;;;;;;;1.65;1.00;;;22.60;43.30;;;;;;4991922;28;20049;-62
2022/04/14 03:44:57;;;;;;;1.58;0.90;;;22.60;43.20;;;;;;4991612;28;20026;-62
2022/04/14 03:47:23;;;;;;;1.35;0.90;;;22.60;43.30;;;;;;4991493;28;20132;-63
2022/04/14 03:49:49;;;;;;;1.67;0.98;;;22.60;43.30;;;;;;4992374;28;20033;-63
2022/04/14 03:52:15;;;;;;;1.45;0.85;;;22.60;43.30;;;;;;4991543;28;20080;-61
2022/04/14 03:54:40;;;;;;;1.63;1.10;;;22.60;43.30;;;;;;4991453;28;20654;-63
2022/04/14 03:57:06;;;;;;;1.52;1.00;;;22.60;43.30;;;;;;4991660;28;20030;-64
2022/04/14 03:59:31;;;;;;;1.02;0.90;;;22.60;43.30;;;;;;4991120;28;20041;-63
2022/04/14 04:01:57;;;;;;;1.48;0.90;;;22.60;43.30;;;;;;4989697;28;20042;-62
2022/04/14 04:04:23;;;;;;;2.08;0.95;;;22.60;43.30;;;;;;4992141;28;20060;-64
2022/04/14 04:06:49;;;;;;;1.48;0.98;;;22.60;43.30;;;;;;4990928;28;20049;-63
2022/04/14 04:09:14;;;;;;;1.85;1.00;;;22.60;43.30;;;;;;4993183;28;20088;-62
2022/04/14 04:11:40;;;;;;;1.70;1.00;;;22.60;43.30;;;;;;4991154;28;20045;-62
2022/04/14 04:14:06;;;;;;;2.28;1.00;;;22.60;43.40;;;;;;4990231;28;20026;-63
2022/04/14 04:16:32;;;;;;;2.30;1.08;;;22.60;43.40;;;;;;4990708;28;20149;-63
2022/04/14 04:18:57;;;;;;;1.55;0.93;;;22.50;43.30;;;;;;4990037;28;20032;-63
2022/04/14 04:21:25;;;;;;;1.63;1.08;;;22.50;43.30;;;;;;4992178;28;20037;-60
2022/04/14 04:23:50;;;;;;;1.20;0.90;;;22.50;43.30;;;;;;4992179;28;20052;-64
2022/04/14 04:26:16;;;;;;;1.48;0.95;;;22.50;43.30;;;;;;4992615;28;20084;-64
2022/04/14 04:28:42;;;;;;;1.60;0.95;;;22.50;43.30;;;;;;4992297;28;20041;-62
2022/04/14 04:31:07;;;;;;;1.40;0.95;;;22.50;43.30;;;;;;4989667;28;20129;-64
2022/04/14 04:33:33;;;;;;;2.25;1.10;;;22.50;43.30;;;;;;4991889;28;20037;-63
2022/04/14 04:35:58;;;;;;;1.40;0.90;;;22.50;43.30;;;;;;4991324;28;20034;-62
2022/04/14 04:38:24;;;;;;;1.23;0.80;;;22.50;43.30;;;;;;4993034;28;20036;-63
2022/04/14 04:40:49;;;;;;;1.80;1.05;;;22.50;43.30;;;;;;4991699;28;20092;-62
2022/04/14 04:43:15;;;;;;;1.65;1.10;;;22.50;43.30;;;;;;4992050;28;20113;-63
2022/04/14 04:45:42;;;;;;;1.83;1.20;;;22.50;43.30;;;;;;4988842;28;20135;-64
2022/04/14 04:48:08;;;;;;;1.65;1.10;;;22.50;43.40;;;;;;4981389;28;20045;-63
2022/04/14 04:50:33;;;;;;;1.70;1.10;;;22.50;43.40;;;;;;4990019;28;20067;-63
2022/04/14 04:52:59;;;;;;;1.30;1.00;;;22.50;43.40;;;;;;4988611;28;20040;-63
2022/04/14 04:55:25;;;;;;;1.25;0.90;;;22.50;43.40;;;;;;4991303;28;20058;-64
2022/04/14 04:57:50;;;;;;;1.40;1.00;;;22.50;43.40;;;;;;4988157;28;20037;-62
2022/04/14 05:00:16;;;;;;;1.33;0.95;;;22.50;43.40;;;;;;4989615;28;20813;-63
2022/04/14 05:02:42;;;;;;;1.58;1.00;;;22.40;43.30;;;;;;4988615;28;20050;-64
2022/04/14 05:05:08;;;;;;;1.88;1.10;;;22.40;43.40;;;;;;4989556;28;20103;-64
2022/04/14 05:07:33;;;;;;;1.52;0.90;;;22.40;43.40;;;;;;4989047;28;20037;-62
2022/04/14 05:09:59;;;;;;;1.45;1.00;;;22.40;43.40;;;;;;4990601;28;20088;-62
2022/04/14 05:12:24;;;;;;;1.95;1.10;;;22.40;43.40;;;;;;4992455;28;20030;-62
2022/04/14 05:14:50;;;;;;;1.30;0.90;;;22.40;43.40;;;;;;4988740;28;20075;-63
2022/04/14 05:17:16;;;;;;;1.35;1.00;;;22.40;43.40;;;;;;4993657;28;20418;-65
2022/04/14 05:19:41;;;;;;;1.45;0.95;;;22.40;43.40;;;;;;4993264;28;20034;-62
2022/04/14 05:22:07;;;;;;;1.35;1.00;;;22.40;43.40;;;;;;4993582;28;20551;-65
2022/04/14 05:24:33;;;;;;;1.30;0.90;;;22.40;43.40;;;;;;4993922;28;20501;-65
2022/04/14 05:26:59;;;;;;;1.52;0.95;;;22.40;43.40;;;;;;4993201;28;20038;-63
2022/04/14 05:29:25;;;;;;;1.40;0.90;;;22.40;43.40;;;;;;4992735;28;20183;-63
2022/04/14 05:31:51;;;;;;;1.50;0.82;;;22.40;43.40;;;;;;4989722;28;20048;-63
2022/04/14 05:34:16;;;;;;;2.05;1.02;;;22.40;43.50;;;;;;4995794;28;20022;-63
2022/04/14 05:36:42;;;;;;;1.27;0.90;;;22.30;43.50;;;;;;4996731;28;20455;-62
2022/04/14 05:39:07;;;;;;;1.38;0.90;;;22.30;43.50;;;;;;4997689;28;20026;-60
2022/04/14 05:41:34;;;;;;;1.30;0.90;;;22.40;43.50;;;;;;4994155;28;20040;-64
2022/04/14 05:43:59;;;;;;;1.50;1.10;;;22.30;43.50;;;;;;4994858;28;20123;-65
2022/04/14 05:46:25;;;;;;;1.80;0.90;;;22.30;43.50;;;;;;4991018;28;21464;-62
2022/04/14 05:48:51;;;;;;;1.02;0.82;;;22.30;43.50;;;;;;4992936;28;20046;-64
2022/04/14 05:51:17;;;;;;;1.25;0.90;;;22.30;43.50;;;;;;4996793;28;20041;-62
2022/04/14 05:53:43;;;;;;;3.03;1.10;;;22.30;44.00;;;;;;4995152;28;20454;-62
2022/04/14 05:56:08;;;;;;;1.60;1.00;;;22.30;43.50;;;;;;4996928;28;20026;-63
2022/04/14 05:58:34;;;;;;;1.20;0.93;;;22.30;43.50;;;;;;4997675;28;20112;-62
2022/04/14 06:01:00;;;;;;;1.25;0.88;;;22.30;43.50;;;;;;4995351;28;20042;-62
2022/04/14 06:03:26;;;;;;;1.45;1.00;;;22.30;43.50;;;;;;4993555;28;20545;-62
2022/04/14 06:05:51;;;;;;;1.13;0.90;;;22.30;43.50;;;;;;4995850;28;20123;-63
2022/04/14 06:08:18;;;;;;;1.30;1.00;;;22.30;43.50;;;;;;4995802;28;20057;-62
2022/04/14 06:10:44;;;;;;;1.08;0.90;;;22.30;43.50;;;;;;4994148;28;20108;-63
2022/04/14 06:13:11;;;;;;;1.25;1.00;;;22.30;43.70;;;;;;4995577;28;20068;-65
2022/04/14 06:15:37;;;;;;;2.08;1.10;;;22.30;43.50;;;;;;4991840;28;20068;-64
2022/04/14 06:18:03;;;;;;;1.75;0.88;;;22.30;43.50;;;;;;4992291;28;20030;-62
2022/04/14 06:20:29;;;;;;;1.10;0.82;;;22.30;43.50;;;;;;4983443;28;20018;-63
2022/04/14 06:22:56;;;;;;;1.17;1.00;;;22.30;43.50;;;;;;4991491;28;20029;-61
2022/04/14 06:25:22;;;;;;;1.75;1.10;;;22.30;43.50;;;;;;4991131;28;20034;-65
2022/04/14 06:27:50;;;;;;;1.33;0.80;;;22.30;43.50;;;;;;4994643;28;20032;-63
2022/04/14 06:30:17;;;;;;;1.58;1.00;;;22.30;43.50;;;;;;4994158;28;20022;-63
2022/04/14 06:33:02;;;;;;;1.88;1.00;;;22.30;43.50;;;;;;4992422;28;20018;-63
2022/04/14 06:35:28;;;;;;;1.20;0.93;;;22.30;43.50;;;;;;4993652;28;20064;-65
2022/04/14 06:37:54;;;;;;;1.48;1.00;;;22.30;43.40;;;;;;4986577;28;20168;-62
2022/04/14 06:40:21;;;;;;;1.15;0.90;;;22.30;43.50;;;;;;4980749;28;20061;-62
2022/04/14 06:42:47;;;;;;;1.27;0.90;;;22.30;43.50;;;;;;4994226;28;20033;-61
2022/04/14 06:45:13;;;;;;;1.40;0.90;;;22.30;43.50;;;;;;4992350;28;20034;-62
2022/04/14 06:47:39;;;;;;;1.30;0.90;;;22.30;43.40;;;;;;4991115;28;20026;-62
2022/04/14 06:50:05;;;;;;;1.42;0.93;;;22.20;43.40;;;;;;4990858;28;20096;-65
2022/04/14 06:52:30;;;;;;;1.40;0.88;;;22.20;43.40;;;;;;4993229;28;20030;-62
2022/04/14 06:54:56;;;;;;;1.50;0.90;;;22.20;43.40;;;;;;4992208;28;20030;-63
2022/04/14 06:57:21;;;;;;;1.38;0.90;;;22.30;43.40;;;;;;4993382;28;20029;-64
2022/04/14 06:59:47;;;;;;;2.40;0.98;;;22.20;43.40;;;;;;4991840;28;20049;-61
2022/04/14 07:02:13;;;;;;;2.00;1.10;;;22.20;43.40;;;;;;4952259;28;1104976;-60
2022/04/14 07:04:38;;;;;;;2.00;1.00;;;22.20;43.40;;;;;;4991072;28;20410;-61
2022/04/14 07:07:04;;;;;;;1.60;1.00;;;22.20;43.30;;;;;;4994958;28;20034;-59
2022/04/14 07:09:32;;;;;;;1.92;0.82;;;22.20;43.30;;;;;;4994629;28;20029;-61
2022/04/14 07:11:59;;;;;;;1.40;0.90;;;22.20;43.30;;;;;;4996394;28;20029;-64
2022/04/14 07:14:27;;;;;;;1.50;0.90;;;22.20;43.30;;;;;;4993877;28;20509;-61
2022/04/14 07:16:53;;;;;;;1.30;0.90;;;22.30;43.40;;;;;;4992851;28;20646;-62
2022/04/14 07:19:18;;;;;;;1.50;1.00;;;22.20;43.30;;;;;;4990168;28;20028;-59
2022/04/14 07:21:44;;;;;;;1.63;0.90;;;22.30;43.40;;;;;;4993981;28;20121;-64
2022/04/14 07:24:10;;;;;;;2.28;1.20;;;22.30;43.40;;;;;;4993408;28;20073;-61
2022/04/14 07:26:36;;;;;;;1.48;1.00;;;22.20;43.30;;;;;;4993349;28;20049;-66
2022/04/14 07:29:03;;;;;;;1.25;1.00;;;22.20;43.30;;;;;;4994507;28;20037;-66
2022/04/14 07:31:31;;;;;;;1.40;0.90;;;22.20;43.40;;;;;;4991604;28;20041;-64
2022/04/14 07:33:57;;;;;;;1.58;1.00;;;22.20;43.40;;;;;;4990779;28;20064;-66
2022/04/14 07:36:23;;;;;;;1.42;1.00;;;22.20;43.40;;;;;;4988298;28;20030;-66
2022/04/14 07:38:48;;;;;;;1.17;0.90;;;22.20;43.40;;;;;;4993348;28;20034;-64
2022/04/14 07:41:14;;;;;;;1.42;0.93;;;22.20;43.40;;;;;;4992304;28;20045;-64
2022/04/14 07:43:39;;;;;;;1.67;0.90;;;22.20;43.40;;;;;;4995930;28;20126;-59
2022/04/14 07:46:06;;;;;;;1.58;0.77;;;22.20;43.40;;;;;;4993833;28;20042;-61
2022/04/14 07:48:32;;;;;;;1.17;1.00;;;22.20;43.40;;;;;;4989224;28;20038;-64
2022/04/14 07:50:59;;;;;;;1.42;1.00;;;22.20;43.40;;;;;;4991323;28;20053;-65
2022/04/14 07:53:25;;;;;;;1.33;1.08;;;22.20;43.40;;;;;;4993966;28;20037;-64
2022/04/14 07:55:50;;;;;;;1.23;1.00;;;22.10;43.40;;;;;;4992722;28;20506;-63
2022/04/14 07:58:16;;;;;;;1.98;1.20;;;22.10;43.40;;;;;;4992369;28;20104;-66
2022/04/14 08:00:42;;;;;;;1.90;1.00;;;22.10;43.40;;;;;;4990303;28;20065;-64
2022/04/14 08:03:09;;;;;;;1.60;0.90;;;22.20;43.40;;;;;;4989418;28;20022;-66
2022/04/14 08:05:39;;;;;;;1.17;0.90;;;22.10;43.30;;;;;;4989340;28;20094;-66
2022/04/14 08:08:11;;;;;;;1.85;1.05;;;22.20;43.40;;;;;;4994369;28;20064;-64
2022/04/14 08:10:37;;;;;;;2.35;0.98;;;22.20;43.40;;;;;;4991382;28;20032;-63
2022/04/14 08:13:03;;;;;;;1.63;1.00;;;22.20;43.40;;;;;;4992140;28;20088;-66
2022/04/14 08:15:30;;;;;;;2.13;1.00;;;22.10;43.40;;;;;;4989545;28;20136;-65
2022/04/14 08:17:55;;;;;;;1.67;1.00;;;22.20;43.40;;;;;;4991999;28;20034;-61
2022/04/14 08:20:21;;;;;;;1.55;1.08;;;22.10;43.40;;;;;;4991452;28;20026;-62
2022/04/14 08:22:51;;;;;;;1.58;1.10;;;22.10;43.40;;;;;;4991514;28;20041;-62
2022/04/14 08:25:20;;;;;;;1.77;1.10;;;22.20;43.40;;;;;;4993264;28;20494;-62
2022/04/14 08:27:47;;;;;;;0.90;0.80;;;22.20;43.40;;;;;;4994175;28;20049;-60
2022/04/14 08:30:17;;;;;;;1.13;0.88;;;22.10;43.30;;;;;;4990600;28;20048;-61
2022/04/14 08:32:44;;;;;;;1.58;0.85;;;22.20;43.40;;;;;;4992800;28;20034;-59
2022/04/14 08:35:11;;;;;;;2.03;1.20;;;22.20;43.40;;;;;;4992044;28;20057;-64
2022/04/14 08:37:38;;;;;;;1.88;0.98;;;22.20;43.40;;;;;;4988185;28;20029;-62
2022/04/14 08:40:09;;;;;;;1.05;0.90;;;22.20;43.40;;;;;;4993682;28;20036;-63
2022/04/14 08:42:39;;;;;;;1.85;1.00;;;22.10;43.30;;;;;;4992813;28;20093;-62
2022/04/14 08:45:06;;;;;;;;;;;22.20;43.40;;;;;;4992973;28;20030;-62
2022/04/14 08:47:35;;;;;;;1.15;0.90;;;22.20;43.40;;;;;;4992794;28;19952;-61
2022/04/14 08:50:00;;;;;;;1.50;0.90;;;22.20;43.40;;;;;;4990712;28;20036;-63
2022/04/14 08:52:27;;;;;;;1.83;0.90;;;22.20;43.40;;;;;;4991469;28;20645;-62
2022/04/14 08:54:54;;;;;;;1.88;0.90;;;22.20;43.40;;;;;;4987771;28;20022;-61
2022/04/14 08:57:21;;;;;;;1.30;1.00;;;22.20;43.90;;;;;;4986534;28;20133;-61
2022/04/14 08:59:49;;;;;;;1.45;1.00;;;22.20;43.40;;;;;;4991096;28;20018;-63
2022/04/14 09:02:18;;;;;;;1.65;1.08;;;22.20;43.30;;;;;;4989152;28;20755;-59
2022/04/14 09:04:45;;;;;;;2.13;1.10;;;22.20;43.30;;;;;;4992999;28;20682;-61
2022/04/14 09:07:11;;;;;;;1.80;1.00;;;22.20;43.30;;;;;;4993754;28;20119;-62
2022/04/14 09:09:37;;;;;;;1.13;0.98;;;22.20;43.40;;;;;;4992212;28;20037;-59
2022/04/14 09:12:04;;;;;;;1.23;0.90;;;22.20;43.40;;;;;;4993865;28;20127;-60
2022/04/14 09:14:34;;;;;;;2.45;1.20;;;22.20;43.40;;;;;;4987805;28;20017;-61
2022/04/14 09:17:00;;;;;;;;;;;22.20;43.40;;;;;;4990839;28;20619;-61
2022/04/14 09:19:29;;;;;;;1.67;1.00;;;22.20;43.40;;;;;;4986174;28;20544;-62
2022/04/14 09:21:59;;;;;;;2.03;1.25;;;22.20;43.40;;;;;;4994655;28;20033;-62
2022/04/14 09:24:49;;;;;;;3.08;1.25;;;22.20;43.40;;;;;;4988766;28;20058;-61
2022/04/14 09:27:31;;;;;;;1.42;1.00;;;22.20;43.40;;;;;;4991369;28;20030;-64
2022/04/14 09:29:59;;;;;;;2.42;1.10;;;22.20;43.40;;;;;;4993270;28;20118;-64
2022/04/14 09:32:30;;;;;;;1.23;0.95;;;22.20;43.40;;;;;;4988925;28;20054;-64
2022/04/14 09:34:57;;;;;;;1.92;1.00;;;22.20;43.40;;;;;;5009465;28;20029;-65
2022/04/14 09:37:23;;;;;;;1.67;1.10;;;22.20;43.50;;;;;;4988683;28;20038;-64
2022/04/14 09:39:56;;;;;;;2.28;1.20;;;22.20;43.60;;;;;;4986689;28;20030;-64
2022/04/14 09:42:24;;;;;;;1.85;1.10;;;22.20;43.60;;;;;;4992878;28;20443;-64
2022/04/14 09:44:51;;;;;;;2.30;1.10;;;22.20;43.60;;;;;;4993835;28;20052;-62
2022/04/14 09:47:24;;;;;;;1.80;1.15;;;22.20;43.60;;;;;;4990943;28;20084;-61
2022/04/14 09:49:49;;;;;;;3.90;1.30;;;22.20;43.60;;;;;;4992037;28;20077;-65
2022/04/14 09:52:15;;;;;;;1.50;0.93;;;22.20;43.60;;;;;;4993297;28;20534;-66
2022/04/14 09:54:40;;;;;;;2.30;1.20;;;22.20;43.60;;;;;;4993049;28;20092;-64
2022/04/14 09:57:10;;;;;;;1.65;1.02;;;22.20;43.60;;;;;;4993493;28;20354;-65
2022/04/14 09:59:40;;;;;;;1.95;1.20;;;22.20;43.60;;;;;;4992707;28;20398;-64
2022/04/14 10:02:16;;;;;;;2.35;1.30;;;22.20;43.60;;;;;;4990097;28;20056;-63
2022/04/14 10:04:46;;;;;;;1.90;1.13;;;22.20;43.60;;;;;;4993935;28;20061;-61
2022/04/14 10:07:14;;;;;;;2.30;1.00;;;22.20;43.60;;;;;;4997328;28;20034;-59
2022/04/14 10:09:41;;;;;;;2.38;1.30;;;22.20;43.70;;;;;;4995379;28;20530;-61
2022/04/14 10:12:15;;;;;;;2.63;1.10;;;22.20;43.60;;;;;;4992704;28;20058;-61
2022/04/14 10:14:42;;;;;;;2.40;1.30;;;22.20;43.70;;;;;;4992744;28;20037;-59
2022/04/14 10:17:10;;;;;;;2.22;1.25;;;22.20;43.70;;;;;;4988229;28;20497;-62
2022/04/14 10:19:36;;;;;;;1.77;1.10;;;22.30;43.70;;;;;;4994196;28;20109;-59
2022/04/14 10:22:04;;;;;;;3.25;1.30;;;22.20;43.70;;;;;;4997054;28;20405;-62
2022/04/14 10:24:33;;;;;;;2.22;1.00;;;22.20;43.70;;;;;;4995663;28;20569;-62
2022/04/14 10:27:00;;;;;;;1.50;1.08;;;22.20;43.70;;;;;;4997991;28;20092;-61
2022/04/14 10:29:27;;;;;;;2.25;1.20;;;22.20;43.70;;;;;;4997801;28;20486;-61
2022/04/14 10:31:54;;;;;;;1.90;1.10;;;22.20;43.70;;;;;;4994337;28;20050;-62
2022/04/14 10:34:21;;;;;;;1.77;1.13;;;22.20;43.70;;;;;;4996096;28;20125;-61
2022/04/14 10:36:48;;;;;;;2.58;1.20;;;22.20;43.80;;;;;;4989163;28;20401;-61
2022/04/14 10:39:15;;;;;;;1.80;1.30;;;22.20;43.80;;;;;;4995739;28;20554;-62
2022/04/14 10:41:46;;;;;;;2.03;1.27;;;22.20;44.00;;;;;;4997483;28;20060;-61
2022/04/14 10:44:13;;;;;;;2.88;1.35;;;22.20;44.00;;;;;;4997978;28;20088;-62
2022/04/14 10:46:41;;;;;;;2.08;1.25;;;22.30;44.00;;;;;;4993724;28;20072;-62
2022/04/14 10:49:11;;;;;;;2.60;1.40;;;22.30;43.90;;;;;;4993861;28;20105;-59
2022/04/14 10:51:37;;;;;;;2.55;1.33;;;22.30;43.80;;;;;;4995218;28;20086;-62
2022/04/14 10:54:11;;;;;;;2.72;1.50;;;22.30;44.00;;;;;;4997557;28;20459;-62
2022/04/14 10:56:42;;;;;;;2.50;1.27;;;22.30;44.00;;;;;;4995417;28;20481;-62
2022/04/14 10:59:11;;;;;;;2.00;1.23;;;22.30;43.90;;;;;;4998787;28;20018;-61
2022/04/14 11:01:57;;;;;;;3.08;1.50;;;22.30;43.80;;;;;;4995361;28;20129;-62
2022/04/14 11:04:26;;;;;;;3.30;1.30;;;22.30;43.70;;;;;;4993036;28;20113;-59
2022/04/14 11:07:01;;;;;;;2.53;1.42;;;22.30;43.80;;;;;;4990185;28;20022;-61
2022/04/14 11:09:38;;;;;;;3.08;1.50;;;22.30;43.80;;;;;;4998290;28;20029;-61
2022/04/14 11:12:06;;;;;;;3.00;1.60;;;22.30;43.80;;;;;;4990872;28;20041;-59
2022/04/14 11:14:36;;;;;;;3.10;1.70;;;22.30;43.80;;;;;;4990524;28;20030;-63
2022/04/14 11:17:03;;;;;;;2.97;1.40;;;22.30;43.80;;;;;;4987990;28;20053;-63
2022/04/14 11:19:30;;;;;;;2.70;1.60;;;22.30;43.90;;;;;;4990714;28;20040;-60
2022/04/14 11:21:58;;;;;;;2.22;1.63;;;22.30;43.90;;;;;;4992121;28;20124;-60
2022/04/14 11:24:36;;;;;;;2.35;1.23;;;22.30;43.80;;;;;;4992446;28;20035;-63
2022/04/14 11:27:18;;;;;;;2.20;1.33;;;22.30;43.80;;;;;;4990343;28;20032;-62
2022/04/14 11:29:46;;;;;;;2.35;1.30;;;22.30;43.70;;;;;;4989492;28;20544;-63
2022/04/14 11:32:13;;;;;;;2.15;1.40;;;22.30;43.70;;;;;;4985908;28;20066;-62
2022/04/14 11:34:42;;;;;;;2.63;1.38;;;22.30;43.70;;;;;;4988456;28;20056;-60
2022/04/14 11:37:41;;;;;;;2.42;1.60;;;22.30;43.70;;;;;;4989993;28;20108;-63
2022/04/14 11:40:15;;;;;;;1.67;1.30;;;22.30;43.70;;;;;;5009940;28;20395;-62
2022/04/14 11:42:41;;;;;;;1.58;1.30;;;22.30;43.70;;;;;;4993438;28;20026;-62
2022/04/14 11:45:08;;;;;;;1.40;1.15;;;22.30;43.70;;;;;;4995204;28;20038;-63
2022/04/14 11:47:34;;;;;;;2.20;1.40;;;22.30;43.80;;;;;;4990224;28;20034;-59
2022/04/14 11:49:59;;;;;;;2.08;1.35;;;22.30;43.70;;;;;;4987324;28;20139;-62
2022/04/14 11:52:25;;;;;;;1.73;1.33;;;22.30;43.80;;;;;;4993297;28;20505;-61
2022/04/14 11:54:53;;;;;;;2.08;1.20;;;22.30;43.70;;;;;;4986085;28;20561;-62
2022/04/14 11:57:23;;;;;;;2.40;1.33;;;22.30;43.80;;;;;;4986067;28;20026;-64
2022/04/14 11:59:50;;;;;;;2.15;1.40;;;22.30;43.80;;;;;;4985448;28;20074;-63
2022/04/14 12:02:18;;;;;;;2.85;1.33;;;22.40;44.10;;;;;;4983219;28;20183;-63
2022/04/14 12:04:47;;;;;;;1.88;1.35;;;22.30;44.30;;;;;;4992236;28;20026;-64
2022/04/14 12:07:14;;;;;;;2.10;1.30;;;22.30;44.00;;;;;;4992262;28;20747;-60
2022/04/14 12:09:40;;;;;;;1.77;1.15;;;22.40;44.00;;;;;;4993691;28;20136;-63
2022/04/14 12:12:13;;;;;;;2.40;1.30;;;22.40;43.90;;;;;;4990630;28;20092;-60
2022/04/14 12:14:50;;;;;;;1.98;1.30;;;22.40;43.90;;;;;;4992023;28;20974;-63
2022/04/14 12:17:21;;;;;;;2.72;1.40;;;22.40;43.80;;;;;;4988082;28;20026;-63
2022/04/14 12:19:55;;;;;;;1.85;1.30;;;22.40;43.80;;;;;;4990846;28;20026;-62
2022/04/14 12:22:21;;;;;;;1.65;1.08;;;22.40;43.80;;;;;;4994539;28;20105;-62
2022/04/14 12:24:54;;;;;;;1.80;1.20;;;22.40;43.80;;;;;;4993586;28;20605;-63
2022/04/14 12:27:24;;;;;;;2.13;1.30;;;22.40;43.90;;;;;;4994426;28;20087;-63
2022/04/14 12:29:54;;;;;;;2.20;1.30;;;22.40;43.80;;;;;;4995832;28;20037;-63
2022/04/14 12:32:24;;;;;;;2.20;1.20;;;22.40;43.90;;;;;;4986846;28;20041;-63
2022/04/14 12:34:50;;;;;;;1.90;1.30;;;22.40;43.80;;;;;;4987619;28;20033;-62
2022/04/14 12:37:18;;;;;;;1.77;1.30;;;22.40;43.80;;;;;;4973994;28;20033;-63
2022/04/14 12:39:55;;;;;;;2.85;1.35;;;22.40;43.80;;;;;;4989922;28;20410;-63
2022/04/14 12:42:32;;;;;;;2.33;1.60;;;22.40;43.80;;;;;;4993554;28;20116;-63
2022/04/14 12:45:09;;;;;;;2.40;1.40;;;22.40;43.80;;;;;;4994549;28;20033;-60
2022/04/14 12:47:35;;;;;;;1.95;1.30;;;22.40;43.70;;;;;;4992840;28;20038;-63